createdAt,value
2019-03-26T00:00:41.974Z,3.70
2019-03-26T00:03:11.336Z,3.73
2019-03-26T00:05:40.837Z,3.90
2019-03-26T00:08:10.302Z,3.00
2019-03-26T00:10:39.757Z,4.13
2019-03-26T00:13:09.123Z,4.00
2019-03-26T00:15:38.567Z,3.40
2019-03-26T00:18:08.035Z,3.53
2019-03-26T00:20:37.444Z,3.20
2019-03-26T00:23:06.896Z,4.30
2019-03-26T00:25:36.672Z,3.43
2019-03-26T00:28:06.222Z,2.90
2019-03-26T00:30:35.796Z,4.37
2019-03-26T00:33:05.250Z,3.00
2019-03-26T00:35:34.722Z,3.53
2019-03-26T00:38:04.163Z,3.83
2019-03-26T00:40:33.628Z,4.10
2019-03-26T00:43:03.094Z,3.63
2019-03-26T00:45:32.583Z,3.40
2019-03-26T00:48:02.096Z,3.00
2019-03-26T00:50:31.546Z,2.80
2019-03-26T00:53:00.966Z,3.07
2019-03-26T00:55:30.423Z,3.80
2019-03-26T00:58:01.617Z,2.60
2019-03-26T01:00:42.857Z,3.13
2019-03-26T01:03:12.714Z,3.53
2019-03-26T01:05:42.221Z,3.40
2019-03-26T01:08:11.948Z,4.27
2019-03-26T01:10:41.382Z,4.03
2019-03-26T01:13:10.834Z,3.47
2019-03-26T01:15:40.285Z,3.00
2019-03-26T01:18:09.714Z,3.40
2019-03-26T01:20:39.234Z,3.33
2019-03-26T01:23:08.597Z,3.03
2019-03-26T01:25:39.577Z,3.87
2019-03-26T01:28:09.489Z,3.10
2019-03-26T01:30:38.836Z,3.30
2019-03-26T01:33:08.203Z,3.30
2019-03-26T01:35:37.545Z,3.17
2019-03-26T01:38:06.975Z,3.57
2019-03-26T01:40:36.585Z,4.50
2019-03-26T01:43:06.069Z,3.20
2019-03-26T01:45:35.442Z,3.90
2019-03-26T01:48:04.953Z,4.07
2019-03-26T01:50:34.310Z,2.70
2019-03-26T01:53:03.785Z,3.07
2019-03-26T01:55:33.256Z,3.93
2019-03-26T01:58:02.683Z,3.37
2019-03-26T02:00:32.126Z,3.67
2019-03-26T02:03:01.486Z,3.03
2019-03-26T02:05:30.853Z,3.17
2019-03-26T02:08:00.375Z,2.30
2019-03-26T02:10:29.773Z,3.80
2019-03-26T02:12:59.141Z,3.70
2019-03-26T02:15:30.776Z,3.43
2019-03-26T02:18:00.736Z,3.07
2019-03-26T02:20:30.309Z,3.60
2019-03-26T02:22:59.834Z,2.33
2019-03-26T02:25:29.446Z,3.30
2019-03-26T02:27:58.907Z,2.90
2019-03-26T02:30:29.123Z,2.80
2019-03-26T02:32:58.972Z,3.30
2019-03-26T02:35:28.440Z,3.17
2019-03-26T02:37:57.863Z,3.20
2019-03-26T02:40:27.228Z,3.30
2019-03-26T02:42:56.625Z,3.80
2019-03-26T02:45:25.988Z,2.50
2019-03-26T02:47:55.475Z,3.10
2019-03-26T02:50:25.065Z,2.40
2019-03-26T02:52:54.569Z,2.70
2019-03-26T02:55:24.208Z,3.60
2019-03-26T02:57:53.621Z,2.97
2019-03-26T03:00:23.186Z,2.97
2019-03-26T03:02:52.692Z,2.13
2019-03-26T03:05:34.412Z,3.13
2019-03-26T03:07:53.151Z,2.50
2019-03-26T03:10:22.590Z,4.73
2019-03-26T03:12:52.144Z,2.63
2019-03-26T03:15:21.757Z,3.80
2019-03-26T03:17:51.397Z,3.97
2019-03-26T03:20:20.756Z,3.10
2019-03-26T03:22:50.257Z,2.90
2019-03-26T03:25:19.698Z,5.07
2019-03-26T03:27:49.129Z,3.00
2019-03-26T03:30:18.967Z,3.30
2019-03-26T03:32:48.507Z,2.73
2019-03-26T03:35:18.043Z,3.90
2019-03-26T03:37:47.643Z,3.33
2019-03-26T03:40:17.178Z,3.70
2019-03-26T03:42:46.602Z,3.03
2019-03-26T03:45:21.888Z,3.07
2019-03-26T03:47:52.030Z,3.17
2019-03-26T03:50:21.570Z,3.67
2019-03-26T03:52:51.110Z,4.20
2019-03-26T03:55:20.727Z,3.83
2019-03-26T03:57:52.975Z,2.53
2019-03-26T04:00:37.000Z,3.80
2019-03-26T04:03:07.356Z,3.50
2019-03-26T04:05:37.087Z,3.20
2019-03-26T04:08:06.652Z,3.60
2019-03-26T04:10:36.463Z,3.30
2019-03-26T04:13:05.965Z,3.70
2019-03-26T04:15:35.527Z,3.20
2019-03-26T04:18:05.257Z,2.73
2019-03-26T04:20:34.951Z,3.30
2019-03-26T04:23:05.384Z,3.27
2019-03-26T04:25:34.959Z,2.80
2019-03-26T04:28:04.431Z,4.60
2019-03-26T04:30:34.281Z,3.73
2019-03-26T04:33:03.704Z,3.40
2019-03-26T04:35:33.221Z,3.13
2019-03-26T04:38:02.813Z,3.23
2019-03-26T04:40:32.341Z,3.37
2019-03-26T04:43:01.765Z,4.90
2019-03-26T04:45:31.215Z,3.00
2019-03-26T04:48:00.577Z,2.77
2019-03-26T04:50:29.914Z,3.30
2019-03-26T04:52:59.401Z,4.00
2019-03-26T04:55:28.865Z,3.17
2019-03-26T04:57:58.377Z,3.37
2019-03-26T05:00:27.928Z,3.70
2019-03-26T05:02:57.458Z,2.93
2019-03-26T05:05:26.993Z,2.63
2019-03-26T05:07:56.452Z,3.20
2019-03-26T05:10:26.001Z,3.00
2019-03-26T05:12:55.451Z,3.97
2019-03-26T05:15:24.903Z,2.73
2019-03-26T05:17:56.691Z,3.50
2019-03-26T05:20:25.562Z,2.73
2019-03-26T05:22:54.975Z,2.80
2019-03-26T05:25:24.479Z,3.60
2019-03-26T05:27:53.837Z,3.07
2019-03-26T05:30:23.292Z,3.50
2019-03-26T05:32:52.922Z,3.00
2019-03-26T05:35:22.445Z,3.50
2019-03-26T05:37:51.900Z,3.23
2019-03-26T05:40:21.529Z,3.00
2019-03-26T05:42:50.997Z,3.20
2019-03-26T05:45:20.539Z,2.70
2019-03-26T05:47:49.907Z,3.40
2019-03-26T05:50:19.411Z,2.40
2019-03-26T05:52:48.900Z,3.40
2019-03-26T05:55:18.242Z,2.60
2019-03-26T05:57:47.679Z,3.37
2019-03-26T06:00:23.836Z,3.77
2019-03-26T06:02:53.278Z,3.13
2019-03-26T06:05:22.702Z,3.43
2019-03-26T06:07:52.293Z,2.70
2019-03-26T06:10:21.793Z,3.30
2019-03-26T06:12:51.188Z,3.13
2019-03-26T06:15:20.726Z,3.40
2019-03-26T06:17:50.125Z,3.33
2019-03-26T06:20:19.714Z,3.40
2019-03-26T06:22:49.269Z,3.50
2019-03-26T06:25:18.770Z,4.60
2019-03-26T06:27:48.103Z,3.43
2019-03-26T06:30:17.753Z,2.87
2019-03-26T06:32:47.262Z,3.60
2019-03-26T06:35:16.739Z,3.70
2019-03-26T06:37:46.262Z,2.73
2019-03-26T06:40:17.090Z,2.90
2019-03-26T06:42:46.513Z,3.17
2019-03-26T06:45:16.297Z,3.43
2019-03-26T06:47:45.936Z,3.43
2019-03-26T06:50:15.475Z,2.73
2019-03-26T06:52:44.943Z,4.47
2019-03-26T06:55:15.476Z,3.00
2019-03-26T06:57:44.975Z,3.60
2019-03-26T07:00:15.178Z,3.77
2019-03-26T07:02:45.191Z,3.63
2019-03-26T07:05:14.945Z,2.80
2019-03-26T07:07:44.548Z,3.67
2019-03-26T07:10:15.877Z,3.03
2019-03-26T07:12:45.263Z,3.40
2019-03-26T07:15:15.318Z,3.50
2019-03-26T07:17:44.994Z,2.90
2019-03-26T07:20:14.499Z,3.27
2019-03-26T07:22:44.035Z,4.57
2019-03-26T07:25:13.555Z,2.73
2019-03-26T07:27:43.253Z,4.17
2019-03-26T07:30:16.973Z,4.30
2019-03-26T07:32:46.406Z,2.97
2019-03-26T07:35:15.879Z,3.10
2019-03-26T07:37:45.909Z,3.57
2019-03-26T07:40:16.357Z,3.97
2019-03-26T07:42:45.735Z,5.30
2019-03-26T07:45:16.077Z,4.20
2019-03-26T07:47:45.517Z,4.47
2019-03-26T07:50:15.033Z,3.90
2019-03-26T07:52:44.500Z,3.60
2019-03-26T07:55:14.243Z,4.20
2019-03-26T07:57:43.698Z,4.00
2019-03-26T08:00:13.715Z,4.10
2019-03-26T08:02:43.350Z,5.40
2019-03-26T08:05:12.857Z,4.40
2019-03-26T08:07:42.349Z,4.30
2019-03-26T08:10:12.785Z,3.00
2019-03-26T08:12:42.295Z,3.70
2019-03-26T08:15:11.903Z,4.30
2019-03-26T08:17:41.327Z,3.50
2019-03-26T08:20:12.627Z,4.10
2019-03-26T08:22:42.395Z,5.03
2019-03-26T08:25:12.596Z,3.63
2019-03-26T08:27:42.095Z,4.30
2019-03-26T08:30:11.999Z,3.70
2019-03-26T08:32:41.386Z,3.97
2019-03-26T08:35:11.198Z,5.10
2019-03-26T08:37:40.645Z,3.93
2019-03-26T08:40:10.166Z,4.53
2019-03-26T08:42:39.677Z,5.23
2019-03-26T08:45:10.603Z,4.00
2019-03-26T08:47:40.070Z,5.03
2019-03-26T08:50:09.882Z,3.33
2019-03-26T08:52:39.434Z,4.00
2019-03-26T08:55:11.221Z,4.07
2019-03-26T08:57:40.639Z,3.83
2019-03-26T09:00:11.145Z,4.07
2019-03-26T09:02:40.775Z,4.37
2019-03-26T09:05:10.346Z,4.10
2019-03-26T09:07:39.849Z,3.83
2019-03-26T09:10:10.603Z,3.23
2019-03-26T09:12:40.207Z,3.90
2019-03-26T09:15:10.352Z,3.90
2019-03-26T09:17:39.934Z,3.43
2019-03-26T09:20:10.153Z,4.20
2019-03-26T09:22:39.730Z,3.40
2019-03-26T09:25:10.679Z,3.77
2019-03-26T09:27:40.214Z,3.30
2019-03-26T09:30:10.548Z,3.20
2019-03-26T09:32:40.175Z,3.00
2019-03-26T09:35:10.728Z,4.67
2019-03-26T09:37:40.173Z,4.20
2019-03-26T09:40:10.157Z,3.77
2019-03-26T09:42:39.811Z,3.77
2019-03-26T09:45:10.859Z,3.80
2019-03-26T09:47:40.308Z,3.20
2019-03-26T09:50:11.395Z,3.93
2019-03-26T09:52:40.926Z,5.13
2019-03-26T09:55:10.953Z,3.90
2019-03-26T09:57:40.495Z,4.07
2019-03-26T10:00:11.299Z,3.67
2019-03-26T10:02:43.083Z,3.77
2019-03-26T10:05:12.995Z,3.60
2019-03-26T10:07:42.387Z,3.17
2019-03-26T10:10:13.196Z,3.50
2019-03-26T10:12:42.687Z,3.60
2019-03-26T10:15:12.393Z,3.20
2019-03-26T10:17:41.823Z,4.13
2019-03-26T10:20:11.979Z,3.70
2019-03-26T10:22:42.289Z,4.03
2019-03-26T10:25:13.222Z,3.83
2019-03-26T10:27:42.962Z,4.80
2019-03-26T10:30:13.884Z,3.10
2019-03-26T10:32:47.672Z,3.97
2019-03-26T10:35:17.373Z,4.50
2019-03-26T10:37:46.986Z,3.60
2019-03-26T10:40:30.788Z,3.70
2019-03-26T10:43:00.423Z,3.73
2019-03-26T10:45:29.935Z,3.53
2019-03-26T10:47:59.398Z,2.50
2019-03-26T10:50:28.936Z,2.80
2019-03-26T10:52:58.383Z,4.40
2019-03-26T10:55:27.869Z,3.57
2019-03-26T10:57:57.417Z,2.50
2019-03-26T11:00:27.002Z,3.17
2019-03-26T11:02:56.581Z,3.50
2019-03-26T11:05:26.247Z,3.23
2019-03-26T11:07:55.794Z,3.13
2019-03-26T11:10:25.161Z,3.07
2019-03-26T11:12:54.766Z,2.70
2019-03-26T11:15:24.235Z,3.60
2019-03-26T11:17:53.726Z,3.50
2019-03-26T11:20:23.221Z,2.57
2019-03-26T11:22:52.729Z,3.20
2019-03-26T11:25:22.293Z,4.03
2019-03-26T11:27:51.682Z,3.37
2019-03-26T11:30:21.165Z,3.10
2019-03-26T11:32:50.606Z,3.60
2019-03-26T11:35:20.886Z,3.87
2019-03-26T11:37:50.347Z,2.73
2019-03-26T11:40:20.080Z,3.00
2019-03-26T11:42:49.439Z,3.37
2019-03-26T11:45:19.061Z,3.17
2019-03-26T11:47:48.590Z,3.20
2019-03-26T11:50:18.666Z,3.10
2019-03-26T11:52:48.253Z,3.80
2019-03-26T11:55:17.623Z,2.90
2019-03-26T11:57:46.994Z,4.57
2019-03-26T12:00:20.690Z,3.20
2019-03-26T12:02:50.072Z,3.73
2019-03-26T12:05:19.674Z,3.07
2019-03-26T12:07:49.063Z,3.50
2019-03-26T12:10:18.665Z,3.03
2019-03-26T12:12:48.111Z,3.30
2019-03-26T12:15:17.609Z,3.63
2019-03-26T12:17:47.169Z,3.60
2019-03-26T12:20:16.937Z,2.97
2019-03-26T12:22:46.377Z,2.80
2019-03-26T12:25:15.883Z,3.63
2019-03-26T12:27:45.442Z,3.80
2019-03-26T12:30:18.259Z,2.87
2019-03-26T12:32:47.805Z,3.30
2019-03-26T12:35:28.719Z,3.40
2019-03-26T12:37:58.283Z,3.10
2019-03-26T12:40:27.914Z,4.03
2019-03-26T12:42:57.386Z,3.97
2019-03-26T12:45:27.044Z,4.20
2019-03-26T12:47:56.480Z,4.33
2019-03-26T12:50:25.918Z,3.60
2019-03-26T12:52:55.530Z,3.57
2019-03-26T12:55:24.909Z,3.73
2019-03-26T12:57:54.290Z,3.90
2019-03-26T13:00:28.278Z,3.80
2019-03-26T13:02:57.667Z,4.17
2019-03-26T13:05:27.154Z,3.27
2019-03-26T13:07:56.613Z,3.93
2019-03-26T13:10:26.025Z,3.97
2019-03-26T13:12:56.030Z,3.87
2019-03-26T13:15:25.395Z,3.43
2019-03-26T13:17:54.773Z,3.57
2019-03-26T13:20:24.231Z,3.00
2019-03-26T13:22:53.581Z,4.00
2019-03-26T13:25:23.189Z,3.37
2019-03-26T13:27:52.721Z,3.63
2019-03-26T13:30:22.389Z,3.00
2019-03-26T13:32:51.992Z,2.90
2019-03-26T13:35:21.480Z,4.00
2019-03-26T13:37:51.118Z,3.87
2019-03-26T13:40:27.194Z,3.40
2019-03-26T13:42:51.807Z,4.07
2019-03-26T13:45:21.320Z,2.90
2019-03-26T13:47:50.870Z,3.33
2019-03-26T13:50:20.461Z,3.80
2019-03-26T13:52:49.887Z,4.43
2019-03-26T13:55:19.754Z,3.60
2019-03-26T13:57:49.206Z,3.87
2019-03-26T14:00:39.826Z,3.27
2019-03-26T14:03:09.391Z,4.13
2019-03-26T14:05:38.879Z,3.63
2019-03-26T14:08:08.437Z,3.67
2019-03-26T14:10:41.124Z,4.10
2019-03-26T14:13:09.303Z,5.30
2019-03-26T14:15:39.617Z,3.80
2019-03-26T14:18:09.233Z,5.30
2019-03-26T14:20:38.770Z,4.40
2019-03-26T14:23:08.293Z,4.67
2019-03-26T14:25:37.876Z,4.53
2019-03-26T14:28:07.459Z,3.60
2019-03-26T14:30:41.656Z,4.70
2019-03-26T14:33:11.300Z,3.87
2019-03-26T14:35:40.831Z,4.47
2019-03-26T14:38:10.599Z,4.20
2019-03-26T14:40:53.560Z,3.77
2019-03-26T14:43:11.305Z,5.17
2019-03-26T14:45:42.325Z,4.37
2019-03-26T14:48:12.039Z,4.20
2019-03-26T14:50:41.419Z,4.33
2019-03-26T14:53:10.961Z,4.50
2019-03-26T14:55:40.397Z,4.57
2019-03-26T14:58:09.872Z,5.63
2019-03-26T15:00:39.357Z,5.30
2019-03-26T15:03:08.842Z,5.60
2019-03-26T15:05:38.290Z,6.20
2019-03-26T15:08:07.946Z,4.63
2019-03-26T15:10:37.335Z,4.50
2019-03-26T15:13:06.839Z,5.23
2019-03-26T15:15:36.714Z,4.50
2019-03-26T15:18:06.608Z,4.43
2019-03-26T15:20:36.067Z,5.10
2019-03-26T15:23:05.742Z,4.33
2019-03-26T15:25:35.281Z,4.93
2019-03-26T15:28:04.777Z,5.23
2019-03-26T15:30:34.243Z,5.63
2019-03-26T15:33:03.901Z,4.90
2019-03-26T15:35:33.284Z,4.77
2019-03-26T15:38:02.950Z,4.70
2019-03-26T15:40:32.397Z,4.60
2019-03-26T15:43:01.942Z,5.30
2019-03-26T15:45:31.495Z,5.10
2019-03-26T15:48:01.356Z,5.03
2019-03-26T15:50:44.337Z,4.70
2019-03-26T15:53:14.261Z,5.47
2019-03-26T15:55:44.390Z,4.90
2019-03-26T15:58:14.014Z,4.83
2019-03-26T16:00:43.683Z,5.83
2019-03-26T16:03:13.194Z,5.10
2019-03-26T16:05:42.840Z,5.10
2019-03-26T16:08:12.315Z,5.53
2019-03-26T16:10:42.203Z,5.50
2019-03-26T16:13:11.644Z,4.93
2019-03-26T16:15:44.498Z,5.03
2019-03-26T16:18:12.483Z,4.77
2019-03-26T16:20:41.918Z,4.80
2019-03-26T16:23:11.386Z,6.07
2019-03-26T16:25:40.890Z,6.63
2019-03-26T16:28:10.978Z,5.73
2019-03-26T16:30:40.607Z,6.90
2019-03-26T16:33:10.069Z,5.30
2019-03-26T16:35:40.410Z,4.60
2019-03-26T16:38:10.154Z,5.47
2019-03-26T16:40:39.771Z,4.33
2019-03-26T16:43:09.358Z,5.67
2019-03-26T16:45:39.096Z,5.90
2019-03-26T16:48:08.616Z,6.17
2019-03-26T16:50:38.164Z,5.10
2019-03-26T16:53:07.524Z,6.27
2019-03-26T16:55:37.383Z,5.00
2019-03-26T16:58:06.908Z,5.07
2019-03-26T17:00:36.517Z,5.77
2019-03-26T17:03:06.073Z,6.07
2019-03-26T17:05:35.628Z,5.87
2019-03-26T17:08:05.347Z,5.70
2019-03-26T17:10:34.921Z,5.70
2019-03-26T17:13:04.534Z,6.50
2019-03-26T17:15:34.114Z,5.70
2019-03-26T17:18:03.538Z,5.57
2019-03-26T17:20:32.950Z,5.87
2019-03-26T17:23:02.742Z,6.33
2019-03-26T17:25:32.352Z,6.50
2019-03-26T17:28:01.914Z,6.27
2019-03-26T17:30:31.428Z,6.70
2019-03-26T17:33:00.979Z,6.70
2019-03-26T17:35:30.414Z,7.10
2019-03-26T17:38:10.974Z,6.63
2019-03-26T17:40:40.341Z,5.10
2019-03-26T17:43:09.838Z,6.40
2019-03-26T17:45:39.268Z,7.13
2019-03-26T17:48:08.626Z,6.03
2019-03-26T17:50:38.113Z,6.37
2019-03-26T17:53:07.688Z,7.97
2019-03-26T17:55:37.551Z,6.27
2019-03-26T17:58:07.152Z,7.00
2019-03-26T18:00:45.244Z,6.30
2019-03-26T18:03:25.671Z,6.13
2019-03-26T18:05:45.949Z,7.60
2019-03-26T18:08:15.664Z,7.07
2019-03-26T18:10:45.189Z,6.13
2019-03-26T18:13:14.727Z,6.27
2019-03-26T18:15:44.282Z,7.27
2019-03-26T18:18:13.773Z,6.53
2019-03-26T18:20:43.189Z,7.90
2019-03-26T18:23:12.670Z,8.10
2019-03-26T18:25:42.306Z,7.97
2019-03-26T18:28:11.857Z,5.93
2019-03-26T18:30:41.392Z,7.03
2019-03-26T18:33:10.927Z,7.33
2019-03-26T18:35:40.622Z,8.00
2019-03-26T18:38:10.070Z,8.10
2019-03-26T18:40:39.647Z,5.93
2019-03-26T18:43:09.198Z,6.73
2019-03-26T18:45:38.735Z,6.60
2019-03-26T18:48:08.270Z,7.17
2019-03-26T18:50:37.613Z,6.83
2019-03-26T18:53:07.166Z,6.87
2019-03-26T18:55:36.672Z,8.10
2019-03-26T18:58:06.210Z,7.10
2019-03-26T19:00:39.622Z,6.93
2019-03-26T19:03:09.426Z,6.30
2019-03-26T19:05:38.907Z,7.93
2019-03-26T19:08:08.525Z,6.93
2019-03-26T19:10:38.146Z,9.77
2019-03-26T19:13:18.600Z,7.20
2019-03-26T19:15:38.867Z,7.90
2019-03-26T19:18:08.397Z,7.07
2019-03-26T19:20:37.943Z,7.20
2019-03-26T19:23:07.627Z,7.40
2019-03-26T19:25:37.278Z,7.70
2019-03-26T19:28:06.817Z,7.10
2019-03-26T19:30:36.495Z,6.00
2019-03-26T19:33:05.959Z,6.30
2019-03-26T19:35:35.333Z,6.47
2019-03-26T19:38:04.897Z,6.37
2019-03-26T19:40:34.454Z,5.87
2019-03-26T19:43:10.857Z,6.13
2019-03-26T19:45:35.181Z,6.87
2019-03-26T19:48:04.704Z,7.77
2019-03-26T19:50:34.086Z,7.43
2019-03-26T19:53:03.606Z,5.60
2019-03-26T19:55:33.275Z,6.47
2019-03-26T19:58:02.708Z,6.10
2019-03-26T20:00:32.310Z,7.17
2019-03-26T20:03:01.829Z,5.80
2019-03-26T20:05:31.249Z,6.80
2019-03-26T20:08:00.802Z,6.70
2019-03-26T20:10:30.356Z,7.27
2019-03-26T20:12:59.913Z,7.30
2019-03-26T20:15:29.480Z,5.93
2019-03-26T20:17:58.962Z,7.90
2019-03-26T20:20:28.423Z,6.77
2019-03-26T20:22:58.293Z,6.93
2019-03-26T20:25:27.682Z,6.73
2019-03-26T20:27:57.210Z,7.30
2019-03-26T20:30:26.775Z,6.00
2019-03-26T20:32:56.673Z,8.03
2019-03-26T20:35:26.273Z,6.70
2019-03-26T20:37:55.722Z,6.50
2019-03-26T20:40:25.075Z,6.63
2019-03-26T20:42:54.497Z,6.40
2019-03-26T20:45:24.077Z,6.10
2019-03-26T20:47:53.476Z,5.63
2019-03-26T20:50:23.489Z,6.83
2019-03-26T20:52:52.929Z,5.53
2019-03-26T20:55:31.751Z,5.37
2019-03-26T20:58:01.355Z,6.03
2019-03-26T21:00:37.901Z,5.87
2019-03-26T21:03:08.003Z,5.20
2019-03-26T21:05:37.464Z,5.67
2019-03-26T21:08:07.052Z,6.00
2019-03-26T21:10:36.639Z,7.90
2019-03-26T21:13:06.269Z,6.40
2019-03-26T21:15:35.893Z,5.57
2019-03-26T21:18:05.474Z,4.73
2019-03-26T21:20:35.018Z,6.80
2019-03-26T21:23:04.539Z,6.37
2019-03-26T21:25:34.104Z,4.43
2019-03-26T21:28:03.682Z,5.13
2019-03-26T21:30:33.067Z,4.40
2019-03-26T21:33:02.509Z,4.73
2019-03-26T21:35:31.946Z,5.87
2019-03-26T21:38:01.340Z,4.50
2019-03-26T21:40:30.898Z,5.03
2019-03-26T21:43:00.419Z,5.30
2019-03-26T21:45:37.573Z,5.73
2019-03-26T21:48:08.073Z,4.80
2019-03-26T21:50:37.731Z,5.50
2019-03-26T21:53:07.465Z,4.90
2019-03-26T21:55:37.007Z,5.30
2019-03-26T21:58:06.551Z,5.10
2019-03-26T22:00:36.074Z,6.00
2019-03-26T22:03:05.729Z,5.77
2019-03-26T22:05:35.290Z,4.67
2019-03-26T22:08:04.717Z,4.87
2019-03-26T22:10:34.195Z,4.63
2019-03-26T22:13:03.693Z,4.63
2019-03-26T22:15:33.145Z,4.50
2019-03-26T22:18:02.595Z,4.40
2019-03-26T22:20:32.133Z,4.20
2019-03-26T22:23:01.604Z,5.57
2019-03-26T22:25:31.152Z,5.10
2019-03-26T22:28:00.696Z,4.03
2019-03-26T22:30:30.198Z,4.13
2019-03-26T22:32:59.743Z,4.03
2019-03-26T22:35:29.156Z,4.53
2019-03-26T22:37:58.633Z,3.93
2019-03-26T22:40:28.065Z,4.53
2019-03-26T22:42:57.613Z,3.87
2019-03-26T22:45:27.171Z,4.53
2019-03-26T22:47:56.727Z,4.00
2019-03-26T22:50:26.208Z,4.23
2019-03-26T22:52:55.558Z,4.33
2019-03-26T22:55:24.998Z,4.50
2019-03-26T22:57:54.454Z,4.57
2019-03-26T23:00:24.237Z,3.60
2019-03-26T23:02:53.626Z,3.80
2019-03-26T23:05:23.085Z,4.43
2019-03-26T23:07:52.672Z,3.90
2019-03-26T23:10:22.433Z,3.00
2019-03-26T23:12:52.025Z,3.20
2019-03-26T23:15:24.148Z,4.50
2019-03-26T23:17:53.733Z,4.07
2019-03-26T23:20:23.289Z,4.30
2019-03-26T23:22:52.823Z,4.47
2019-03-26T23:25:22.251Z,4.33
2019-03-26T23:27:51.810Z,4.00
2019-03-26T23:30:21.376Z,5.17
2019-03-26T23:32:50.741Z,3.90
2019-03-26T23:35:20.151Z,4.27
2019-03-26T23:37:49.510Z,4.93
2019-03-26T23:40:19.170Z,3.90
2019-03-26T23:42:48.648Z,4.07
2019-03-26T23:45:18.192Z,5.10
2019-03-26T23:47:47.629Z,3.60
2019-03-26T23:50:17.155Z,3.23
2019-03-26T23:52:46.625Z,3.93
2019-03-26T23:55:16.050Z,5.23
2019-03-26T23:57:45.477Z,5.17
